sensor_id;sensor_type;location;lat;lon;timestamp;P1;durP1;ratioP1;P2;durP2;ratioP2
14526;SDS011;7350;51.208;4.238;2023-02-28T00:00:32;2.40;;;1.65;;
14526;SDS011;7350;51.208;4.238;2023-02-28T00:03:00;2.15;;;1.80;;
14526;SDS011;7350;51.208;4.238;2023-02-28T00:05:28;1.75;;;1.50;;
14526;SDS011;7350;51.208;4.238;2023-02-28T00:07:55;2.83;;;1.70;;
14526;SDS011;7350;51.208;4.238;2023-02-28T00:10:23;1.73;;;1.30;;
14526;SDS011;7350;51.208;4.238;2023-02-28T00:12:52;2.05;;;1.23;;
14526;SDS011;7350;51.208;4.238;2023-02-28T00:15:23;2.30;;;1.70;;
14526;SDS011;7350;51.208;4.238;2023-02-28T00:17:50;2.78;;;1.60;;
14526;SDS011;7350;51.208;4.238;2023-02-28T00:20:18;2.28;;;1.60;;
14526;SDS011;7350;51.208;4.238;2023-02-28T00:22:46;1.70;;;1.60;;
14526;SDS011;7350;51.208;4.238;2023-02-28T00:25:15;1.90;;;1.70;;
14526;SDS011;7350;51.208;4.238;2023-02-28T00:27:43;2.35;;;1.70;;
14526;SDS011;7350;51.208;4.238;2023-02-28T00:30:12;2.25;;;1.90;;
14526;SDS011;7350;51.208;4.238;2023-02-28T00:32:43;2.65;;;1.70;;
14526;SDS011;7350;51.208;4.238;2023-02-28T00:35:11;2.38;;;2.00;;
14526;SDS011;7350;51.208;4.238;2023-02-28T00:37:38;1.92;;;1.70;;
14526;SDS011;7350;51.208;4.238;2023-02-28T00:40:05;2.15;;;1.58;;
14526;SDS011;7350;51.208;4.238;2023-02-28T00:42:34;2.50;;;1.70;;
14526;SDS011;7350;51.208;4.238;2023-02-28T00:45:02;2.33;;;1.85;;
14526;SDS011;7350;51.208;4.238;2023-02-28T00:47:30;1.77;;;1.55;;
14526;SDS011;7350;51.208;4.238;2023-02-28T00:49:58;3.00;;;1.60;;
14526;SDS011;7350;51.208;4.238;2023-02-28T00:52:26;2.80;;;1.80;;
14526;SDS011;7350;51.208;4.238;2023-02-28T00:54:53;2.28;;;1.52;;
14526;SDS011;7350;51.208;4.238;2023-02-28T00:57:20;1.73;;;1.58;;
14526;SDS011;7350;51.208;4.238;2023-02-28T00:59:47;3.30;;;1.85;;
14526;SDS011;7350;51.208;4.238;2023-02-28T01:02:14;2.63;;;1.60;;
14526;SDS011;7350;51.208;4.238;2023-02-28T01:04:41;3.55;;;2.08;;
14526;SDS011;7350;51.208;4.238;2023-02-28T01:07:09;2.55;;;1.55;;
14526;SDS011;7350;51.208;4.238;2023-02-28T01:09:36;2.92;;;1.88;;
14526;SDS011;7350;51.208;4.238;2023-02-28T01:12:03;2.33;;;1.73;;
14526;SDS011;7350;51.208;4.238;2023-02-28T01:14:30;2.20;;;1.80;;
14526;SDS011;7350;51.208;4.238;2023-02-28T01:16:57;2.15;;;1.70;;
14526;SDS011;7350;51.208;4.238;2023-02-28T01:19:24;2.22;;;1.70;;
14526;SDS011;7350;51.208;4.238;2023-02-28T01:21:51;2.20;;;2.00;;
14526;SDS011;7350;51.208;4.238;2023-02-28T01:24:20;2.25;;;1.80;;
14526;SDS011;7350;51.208;4.238;2023-02-28T01:26:47;2.30;;;1.70;;
14526;SDS011;7350;51.208;4.238;2023-02-28T01:29:14;2.28;;;1.70;;
14526;SDS011;7350;51.208;4.238;2023-02-28T01:31:41;2.00;;;1.80;;
14526;SDS011;7350;51.208;4.238;2023-02-28T01:34:08;3.33;;;2.13;;
14526;SDS011;7350;51.208;4.238;2023-02-28T01:36:35;3.05;;;2.22;;
14526;SDS011;7350;51.208;4.238;2023-02-28T01:39:02;2.05;;;1.85;;
14526;SDS011;7350;51.208;4.238;2023-02-28T01:41:31;2.97;;;1.73;;
14526;SDS011;7350;51.208;4.238;2023-02-28T01:44:02;1.92;;;1.80;;
14526;SDS011;7350;51.208;4.238;2023-02-28T01:46:30;1.88;;;1.67;;
14526;SDS011;7350;51.208;4.238;2023-02-28T01:49:00;2.55;;;1.85;;
14526;SDS011;7350;51.208;4.238;2023-02-28T01:51:32;1.85;;;1.73;;
14526;SDS011;7350;51.208;4.238;2023-02-28T01:54:02;2.17;;;1.55;;
14526;SDS011;7350;51.208;4.238;2023-02-28T01:56:40;1.73;;;1.63;;
14526;SDS011;7350;51.208;4.238;2023-02-28T01:59:12;2.35;;;2.03;;
14526;SDS011;7350;51.208;4.238;2023-02-28T02:01:45;2.78;;;2.10;;
14526;SDS011;7350;51.208;4.238;2023-02-28T02:04:13;1.80;;;1.58;;
14526;SDS011;7350;51.208;4.238;2023-02-28T02:06:40;1.77;;;1.50;;
14526;SDS011;7350;51.208;4.238;2023-02-28T02:09:10;2.47;;;1.77;;
14526;SDS011;7350;51.208;4.238;2023-02-28T02:11:40;2.22;;;2.00;;
14526;SDS011;7350;51.208;4.238;2023-02-28T02:17:14;2.33;;;1.73;;
14526;SDS011;7350;51.208;4.238;2023-02-28T02:25:50;1.83;;;1.60;;
14526;SDS011;7350;51.208;4.238;2023-02-28T02:31:33;2.75;;;1.90;;
14526;SDS011;7350;51.208;4.238;2023-02-28T02:37:10;2.80;;;2.08;;
14526;SDS011;7350;51.208;4.238;2023-02-28T02:39:44;2.45;;;2.05;;
14526;SDS011;7350;51.208;4.238;2023-02-28T02:42:16;2.85;;;2.13;;
14526;SDS011;7350;51.208;4.238;2023-02-28T02:44:49;2.08;;;1.75;;
14526;SDS011;7350;51.208;4.238;2023-02-28T02:47:20;2.20;;;2.00;;
14526;SDS011;7350;51.208;4.238;2023-02-28T02:49:52;2.47;;;2.08;;
14526;SDS011;7350;51.208;4.238;2023-02-28T02:52:23;1.67;;;1.58;;
14526;SDS011;7350;51.208;4.238;2023-02-28T02:54:55;2.85;;;2.05;;
14526;SDS011;7350;51.208;4.238;2023-02-28T02:57:26;2.13;;;1.73;;
14526;SDS011;7350;51.208;4.238;2023-02-28T02:59:57;2.35;;;2.13;;
14526;SDS011;7350;51.208;4.238;2023-02-28T03:02:29;2.78;;;1.85;;
14526;SDS011;7350;51.208;4.238;2023-02-28T03:05:01;2.30;;;2.10;;
14526;SDS011;7350;51.208;4.238;2023-02-28T03:07:31;2.15;;;1.92;;
14526;SDS011;7350;51.208;4.238;2023-02-28T03:09:58;2.10;;;1.80;;
14526;SDS011;7350;51.208;4.238;2023-02-28T03:12:27;2.97;;;2.28;;
14526;SDS011;7350;51.208;4.238;2023-02-28T03:15:07;2.30;;;2.10;;
14526;SDS011;7350;51.208;4.238;2023-02-28T03:17:47;3.05;;;2.08;;
14526;SDS011;7350;51.208;4.238;2023-02-28T03:20:30;2.38;;;2.17;;
14526;SDS011;7350;51.208;4.238;2023-02-28T03:23:07;3.15;;;2.33;;
14526;SDS011;7350;51.208;4.238;2023-02-28T03:25:43;2.70;;;2.00;;
14526;SDS011;7350;51.208;4.238;2023-02-28T03:28:19;2.92;;;2.38;;
14526;SDS011;7350;51.208;4.238;2023-02-28T03:30:54;3.35;;;1.98;;
14526;SDS011;7350;51.208;4.238;2023-02-28T03:33:26;2.47;;;1.88;;
14526;SDS011;7350;51.208;4.238;2023-02-28T03:35:58;2.20;;;2.00;;
14526;SDS011;7350;51.208;4.238;2023-02-28T03:38:29;2.40;;;2.10;;
14526;SDS011;7350;51.208;4.238;2023-02-28T03:41:01;2.88;;;2.13;;
14526;SDS011;7350;51.208;4.238;2023-02-28T03:43:33;3.42;;;1.80;;
14526;SDS011;7350;51.208;4.238;2023-02-28T03:46:05;2.65;;;1.85;;
14526;SDS011;7350;51.208;4.238;2023-02-28T03:48:37;2.85;;;2.40;;
14526;SDS011;7350;51.208;4.238;2023-02-28T03:51:08;3.75;;;2.45;;
14526;SDS011;7350;51.208;4.238;2023-02-28T03:53:42;2.72;;;2.20;;
14526;SDS011;7350;51.208;4.238;2023-02-28T03:56:13;3.00;;;2.00;;
14526;SDS011;7350;51.208;4.238;2023-02-28T03:58:44;2.92;;;2.35;;
14526;SDS011;7350;51.208;4.238;2023-02-28T04:01:16;2.97;;;2.08;;
14526;SDS011;7350;51.208;4.238;2023-02-28T04:03:49;3.38;;;2.25;;
14526;SDS011;7350;51.208;4.238;2023-02-28T04:06:19;2.97;;;1.98;;
14526;SDS011;7350;51.208;4.238;2023-02-28T04:08:48;2.20;;;2.00;;
14526;SDS011;7350;51.208;4.238;2023-02-28T04:11:18;2.72;;;2.00;;
14526;SDS011;7350;51.208;4.238;2023-02-28T04:13:48;4.03;;;2.60;;
14526;SDS011;7350;51.208;4.238;2023-02-28T04:16:16;3.05;;;2.35;;
14526;SDS011;7350;51.208;4.238;2023-02-28T04:18:43;2.45;;;2.22;;
14526;SDS011;7350;51.208;4.238;2023-02-28T04:21:10;3.40;;;2.28;;
14526;SDS011;7350;51.208;4.238;2023-02-28T04:23:39;3.72;;;2.00;;
14526;SDS011;7350;51.208;4.238;2023-02-28T04:26:06;2.50;;;2.10;;
14526;SDS011;7350;51.208;4.238;2023-02-28T04:28:33;2.50;;;2.05;;
14526;SDS011;7350;51.208;4.238;2023-02-28T04:31:01;3.72;;;2.13;;
14526;SDS011;7350;51.208;4.238;2023-02-28T04:33:31;2.35;;;2.15;;
14526;SDS011;7350;51.208;4.238;2023-02-28T04:35:59;3.47;;;2.30;;
14526;SDS011;7350;51.208;4.238;2023-02-28T04:38:27;2.90;;;2.20;;
14526;SDS011;7350;51.208;4.238;2023-02-28T04:40:58;2.53;;;1.95;;
14526;SDS011;7350;51.208;4.238;2023-02-28T04:43:25;2.28;;;2.05;;
14526;SDS011;7350;51.208;4.238;2023-02-28T04:45:53;2.22;;;2.03;;
14526;SDS011;7350;51.208;4.238;2023-02-28T04:48:22;3.08;;;2.00;;
14526;SDS011;7350;51.208;4.238;2023-02-28T04:50:49;4.00;;;2.53;;
14526;SDS011;7350;51.208;4.238;2023-02-28T04:53:16;3.35;;;2.50;;
14526;SDS011;7350;51.208;4.238;2023-02-28T04:55:44;3.60;;;2.17;;
14526;SDS011;7350;51.208;4.238;2023-02-28T04:58:13;2.88;;;2.22;;
14526;SDS011;7350;51.208;4.238;2023-02-28T05:00:41;3.47;;;2.53;;
14526;SDS011;7350;51.208;4.238;2023-02-28T05:03:08;2.65;;;2.45;;
14526;SDS011;7350;51.208;4.238;2023-02-28T05:05:35;2.50;;;2.30;;
14526;SDS011;7350;51.208;4.238;2023-02-28T05:08:02;2.90;;;2.13;;
14526;SDS011;7350;51.208;4.238;2023-02-28T05:10:30;3.58;;;2.20;;
14526;SDS011;7350;51.208;4.238;2023-02-28T05:12:57;3.35;;;1.92;;
14526;SDS011;7350;51.208;4.238;2023-02-28T05:15:25;5.20;;;1.95;;
14526;SDS011;7350;51.208;4.238;2023-02-28T05:17:52;3.67;;;2.20;;
14526;SDS011;7350;51.208;4.238;2023-02-28T05:20:19;2.90;;;2.08;;
14526;SDS011;7350;51.208;4.238;2023-02-28T05:22:47;4.65;;;2.30;;
14526;SDS011;7350;51.208;4.238;2023-02-28T05:25:15;3.83;;;2.20;;
14526;SDS011;7350;51.208;4.238;2023-02-28T05:27:44;4.13;;;2.22;;
14526;SDS011;7350;51.208;4.238;2023-02-28T05:30:11;3.00;;;2.20;;
14526;SDS011;7350;51.208;4.238;2023-02-28T05:32:39;6.00;;;2.45;;
14526;SDS011;7350;51.208;4.238;2023-02-28T05:35:08;4.10;;;2.00;;
14526;SDS011;7350;51.208;4.238;2023-02-28T05:37:35;2.83;;;1.90;;
14526;SDS011;7350;51.208;4.238;2023-02-28T05:40:03;4.30;;;2.40;;
14526;SDS011;7350;51.208;4.238;2023-02-28T05:42:32;3.20;;;2.15;;
14526;SDS011;7350;51.208;4.238;2023-02-28T05:44:59;3.20;;;2.50;;
14526;SDS011;7350;51.208;4.238;2023-02-28T05:47:26;3.58;;;1.98;;
14526;SDS011;7350;51.208;4.238;2023-02-28T05:49:55;5.03;;;2.10;;
14526;SDS011;7350;51.208;4.238;2023-02-28T05:52:21;3.47;;;2.03;;
14526;SDS011;7350;51.208;4.238;2023-02-28T05:54:48;3.63;;;1.90;;
14526;SDS011;7350;51.208;4.238;2023-02-28T05:57:15;3.45;;;2.00;;
14526;SDS011;7350;51.208;4.238;2023-02-28T05:59:42;3.83;;;2.00;;
14526;SDS011;7350;51.208;4.238;2023-02-28T06:02:10;3.20;;;2.05;;
14526;SDS011;7350;51.208;4.238;2023-02-28T06:04:39;3.35;;;1.90;;
14526;SDS011;7350;51.208;4.238;2023-02-28T06:07:08;3.78;;;2.00;;
14526;SDS011;7350;51.208;4.238;2023-02-28T06:09:36;3.03;;;2.10;;
14526;SDS011;7350;51.208;4.238;2023-02-28T06:12:04;3.30;;;2.20;;
14526;SDS011;7350;51.208;4.238;2023-02-28T06:14:34;2.20;;;2.00;;
14526;SDS011;7350;51.208;4.238;2023-02-28T06:17:02;3.05;;;2.00;;
14526;SDS011;7350;51.208;4.238;2023-02-28T06:19:30;3.75;;;2.00;;
14526;SDS011;7350;51.208;4.238;2023-02-28T06:21:57;4.13;;;2.20;;
14526;SDS011;7350;51.208;4.238;2023-02-28T06:24:26;3.50;;;2.00;;
14526;SDS011;7350;51.208;4.238;2023-02-28T06:26:54;4.15;;;1.92;;
14526;SDS011;7350;51.208;4.238;2023-02-28T06:29:21;2.47;;;2.03;;
14526;SDS011;7350;51.208;4.238;2023-02-28T06:31:48;2.78;;;2.10;;
14526;SDS011;7350;51.208;4.238;2023-02-28T06:34:16;3.35;;;2.10;;
14526;SDS011;7350;51.208;4.238;2023-02-28T06:36:43;2.78;;;2.13;;
14526;SDS011;7350;51.208;4.238;2023-02-28T06:39:10;2.83;;;2.05;;
14526;SDS011;7350;51.208;4.238;2023-02-28T06:41:38;4.15;;;2.20;;
14526;SDS011;7350;51.208;4.238;2023-02-28T06:44:05;3.25;;;2.17;;
14526;SDS011;7350;51.208;4.238;2023-02-28T06:46:38;2.55;;;2.00;;
14526;SDS011;7350;51.208;4.238;2023-02-28T06:49:05;2.95;;;1.90;;
14526;SDS011;7350;51.208;4.238;2023-02-28T06:51:34;2.90;;;2.03;;
14526;SDS011;7350;51.208;4.238;2023-02-28T06:54:02;2.55;;;2.00;;
14526;SDS011;7350;51.208;4.238;2023-02-28T06:56:29;3.13;;;1.90;;
14526;SDS011;7350;51.208;4.238;2023-02-28T06:58:58;2.45;;;1.92;;
14526;SDS011;7350;51.208;4.238;2023-02-28T07:01:25;3.42;;;2.08;;
14526;SDS011;7350;51.208;4.238;2023-02-28T07:03:53;4.63;;;2.28;;
14526;SDS011;7350;51.208;4.238;2023-02-28T07:06:21;1.85;;;1.67;;
14526;SDS011;7350;51.208;4.238;2023-02-28T07:08:48;4.28;;;2.20;;
14526;SDS011;7350;51.208;4.238;2023-02-28T07:11:15;3.22;;;2.00;;
14526;SDS011;7350;51.208;4.238;2023-02-28T07:13:42;3.65;;;2.20;;
14526;SDS011;7350;51.208;4.238;2023-02-28T07:16:11;4.25;;;2.60;;
14526;SDS011;7350;51.208;4.238;2023-02-28T07:18:38;3.42;;;2.25;;
14526;SDS011;7350;51.208;4.238;2023-02-28T07:21:06;2.92;;;2.20;;
14526;SDS011;7350;51.208;4.238;2023-02-28T07:23:34;4.90;;;2.13;;
14526;SDS011;7350;51.208;4.238;2023-02-28T07:26:03;3.67;;;2.00;;
14526;SDS011;7350;51.208;4.238;2023-02-28T07:28:30;4.97;;;2.20;;
14526;SDS011;7350;51.208;4.238;2023-02-28T07:31:02;3.35;;;2.00;;
14526;SDS011;7350;51.208;4.238;2023-02-28T07:33:32;6.25;;;2.20;;
14526;SDS011;7350;51.208;4.238;2023-02-28T07:36:00;3.25;;;2.20;;
14526;SDS011;7350;51.208;4.238;2023-02-28T07:38:27;3.05;;;2.10;;
14526;SDS011;7350;51.208;4.238;2023-02-28T07:40:54;5.10;;;2.13;;
14526;SDS011;7350;51.208;4.238;2023-02-28T07:43:21;3.30;;;2.13;;
14526;SDS011;7350;51.208;4.238;2023-02-28T07:45:48;6.18;;;2.80;;
14526;SDS011;7350;51.208;4.238;2023-02-28T07:48:15;6.53;;;2.13;;
14526;SDS011;7350;51.208;4.238;2023-02-28T07:50:43;4.82;;;2.60;;
14526;SDS011;7350;51.208;4.238;2023-02-28T07:53:13;4.88;;;2.50;;
14526;SDS011;7350;51.208;4.238;2023-02-28T07:55:40;2.85;;;2.25;;
14526;SDS011;7350;51.208;4.238;2023-02-28T07:58:07;3.40;;;2.33;;
14526;SDS011;7350;51.208;4.238;2023-02-28T08:00:34;3.78;;;2.10;;
14526;SDS011;7350;51.208;4.238;2023-02-28T08:03:00;3.92;;;2.42;;
14526;SDS011;7350;51.208;4.238;2023-02-28T08:05:27;5.45;;;2.35;;
14526;SDS011;7350;51.208;4.238;2023-02-28T08:07:56;3.83;;;2.50;;
14526;SDS011;7350;51.208;4.238;2023-02-28T08:10:25;4.40;;;2.10;;
14526;SDS011;7350;51.208;4.238;2023-02-28T08:12:52;2.80;;;2.08;;
14526;SDS011;7350;51.208;4.238;2023-02-28T08:15:19;2.67;;;2.00;;
14526;SDS011;7350;51.208;4.238;2023-02-28T08:17:46;3.17;;;2.10;;
14526;SDS011;7350;51.208;4.238;2023-02-28T08:20:13;4.47;;;2.30;;
14526;SDS011;7350;51.208;4.238;2023-02-28T08:22:40;6.55;;;2.25;;
14526;SDS011;7350;51.208;4.238;2023-02-28T08:25:09;2.65;;;2.28;;
14526;SDS011;7350;51.208;4.238;2023-02-28T08:27:36;3.10;;;2.10;;
14526;SDS011;7350;51.208;4.238;2023-02-28T08:30:04;4.07;;;2.33;;
14526;SDS011;7350;51.208;4.238;2023-02-28T08:32:32;3.45;;;2.20;;
14526;SDS011;7350;51.208;4.238;2023-02-28T08:34:59;4.05;;;2.33;;
14526;SDS011;7350;51.208;4.238;2023-02-28T08:37:28;3.95;;;2.28;;
14526;SDS011;7350;51.208;4.238;2023-02-28T08:39:55;3.13;;;1.88;;
14526;SDS011;7350;51.208;4.238;2023-02-28T08:42:23;3.00;;;1.88;;
14526;SDS011;7350;51.208;4.238;2023-02-28T08:44:50;3.92;;;1.95;;
14526;SDS011;7350;51.208;4.238;2023-02-28T08:47:17;3.65;;;1.67;;
14526;SDS011;7350;51.208;4.238;2023-02-28T08:49:44;3.17;;;1.80;;
14526;SDS011;7350;51.208;4.238;2023-02-28T08:52:11;3.88;;;2.13;;
14526;SDS011;7350;51.208;4.238;2023-02-28T08:54:38;3.65;;;1.90;;
14526;SDS011;7350;51.208;4.238;2023-02-28T08:57:05;2.58;;;1.95;;
14526;SDS011;7350;51.208;4.238;2023-02-28T08:59:34;2.10;;;1.70;;
14526;SDS011;7350;51.208;4.238;2023-02-28T09:02:01;3.55;;;2.10;;
14526;SDS011;7350;51.208;4.238;2023-02-28T09:04:28;3.25;;;1.92;;
14526;SDS011;7350;51.208;4.238;2023-02-28T09:06:56;3.92;;;1.95;;
14526;SDS011;7350;51.208;4.238;2023-02-28T09:09:23;2.35;;;1.90;;
14526;SDS011;7350;51.208;4.238;2023-02-28T09:11:50;6.10;;;2.45;;
14526;SDS011;7350;51.208;4.238;2023-02-28T09:14:16;3.72;;;2.58;;
14526;SDS011;7350;51.208;4.238;2023-02-28T09:16:46;3.75;;;2.50;;
14526;SDS011;7350;51.208;4.238;2023-02-28T09:19:13;4.93;;;2.70;;
14526;SDS011;7350;51.208;4.238;2023-02-28T09:21:40;5.68;;;3.13;;
14526;SDS011;7350;51.208;4.238;2023-02-28T09:24:07;7.38;;;3.60;;
14526;SDS011;7350;51.208;4.238;2023-02-28T09:26:36;4.85;;;3.60;;
14526;SDS011;7350;51.208;4.238;2023-02-28T09:29:04;7.05;;;3.78;;
14526;SDS011;7350;51.208;4.238;2023-02-28T09:31:31;7.50;;;3.83;;
14526;SDS011;7350;51.208;4.238;2023-02-28T09:34:00;6.95;;;3.88;;
14526;SDS011;7350;51.208;4.238;2023-02-28T09:36:27;8.35;;;4.20;;
14526;SDS011;7350;51.208;4.238;2023-02-28T09:38:55;6.82;;;3.47;;
14526;SDS011;7350;51.208;4.238;2023-02-28T09:41:23;6.78;;;3.72;;
14526;SDS011;7350;51.208;4.238;2023-02-28T09:43:54;6.63;;;3.75;;
14526;SDS011;7350;51.208;4.238;2023-02-28T09:46:28;6.57;;;3.40;;
14526;SDS011;7350;51.208;4.238;2023-02-28T09:49:00;5.57;;;3.10;;
14526;SDS011;7350;51.208;4.238;2023-02-28T09:51:33;7.07;;;3.58;;
14526;SDS011;7350;51.208;4.238;2023-02-28T09:54:08;5.95;;;3.05;;
14526;SDS011;7350;51.208;4.238;2023-02-28T09:56:43;8.75;;;3.40;;
14526;SDS011;7350;51.208;4.238;2023-02-28T09:59:14;4.03;;;2.60;;
14526;SDS011;7350;51.208;4.238;2023-02-28T10:01:54;6.22;;;3.22;;
14526;SDS011;7350;51.208;4.238;2023-02-28T10:04:33;6.55;;;2.55;;
14526;SDS011;7350;51.208;4.238;2023-02-28T10:07:14;5.18;;;2.33;;
14526;SDS011;7350;51.208;4.238;2023-02-28T10:09:51;4.10;;;2.60;;
14526;SDS011;7350;51.208;4.238;2023-02-28T10:12:21;5.80;;;2.78;;
14526;SDS011;7350;51.208;4.238;2023-02-28T10:14:53;5.40;;;2.13;;
14526;SDS011;7350;51.208;4.238;2023-02-28T10:17:22;7.00;;;2.55;;
14526;SDS011;7350;51.208;4.238;2023-02-28T10:19:56;5.85;;;2.08;;
14526;SDS011;7350;51.208;4.238;2023-02-28T10:22:34;5.00;;;2.40;;
14526;SDS011;7350;51.208;4.238;2023-02-28T10:25:11;4.95;;;1.92;;
14526;SDS011;7350;51.208;4.238;2023-02-28T10:27:44;4.70;;;1.85;;
14526;SDS011;7350;51.208;4.238;2023-02-28T10:30:11;3.35;;;2.00;;
14526;SDS011;7350;51.208;4.238;2023-02-28T10:32:39;4.72;;;1.90;;
14526;SDS011;7350;51.208;4.238;2023-02-28T10:35:20;4.70;;;2.00;;
14526;SDS011;7350;51.208;4.238;2023-02-28T10:37:49;5.55;;;2.05;;
14526;SDS011;7350;51.208;4.238;2023-02-28T10:40:30;4.07;;;1.77;;
14526;SDS011;7350;51.208;4.238;2023-02-28T10:43:01;5.25;;;1.95;;
14526;SDS011;7350;51.208;4.238;2023-02-28T10:45:30;3.33;;;1.70;;
14526;SDS011;7350;51.208;4.238;2023-02-28T10:47:59;3.70;;;1.75;;
14526;SDS011;7350;51.208;4.238;2023-02-28T10:50:32;4.68;;;1.63;;
14526;SDS011;7350;51.208;4.238;2023-02-28T10:53:07;3.03;;;1.40;;
14526;SDS011;7350;51.208;4.238;2023-02-28T10:55:42;3.35;;;1.48;;
14526;SDS011;7350;51.208;4.238;2023-02-28T10:58:20;6.13;;;1.60;;
14526;SDS011;7350;51.208;4.238;2023-02-28T11:00:48;4.47;;;1.52;;
14526;SDS011;7350;51.208;4.238;2023-02-28T11:03:28;4.03;;;1.73;;
14526;SDS011;7350;51.208;4.238;2023-02-28T11:05:58;2.72;;;1.73;;
14526;SDS011;7350;51.208;4.238;2023-02-28T11:08:29;4.78;;;1.63;;
14526;SDS011;7350;51.208;4.238;2023-02-28T11:10:58;5.30;;;1.90;;
14526;SDS011;7350;51.208;4.238;2023-02-28T11:13:28;4.50;;;2.05;;
14526;SDS011;7350;51.208;4.238;2023-02-28T11:15:59;5.88;;;1.83;;
14526;SDS011;7350;51.208;4.238;2023-02-28T11:18:29;7.40;;;1.55;;
14526;SDS011;7350;51.208;4.238;2023-02-28T11:21:01;8.57;;;2.00;;
14526;SDS011;7350;51.208;4.238;2023-02-28T11:23:30;6.60;;;1.67;;
14526;SDS011;7350;51.208;4.238;2023-02-28T11:26:01;3.42;;;1.50;;
14526;SDS011;7350;51.208;4.238;2023-02-28T11:28:30;3.55;;;1.50;;
14526;SDS011;7350;51.208;4.238;2023-02-28T11:31:03;4.22;;;1.55;;
14526;SDS011;7350;51.208;4.238;2023-02-28T11:33:54;6.80;;;1.50;;
14526;SDS011;7350;51.208;4.238;2023-02-28T11:36:24;6.20;;;1.63;;
14526;SDS011;7350;51.208;4.238;2023-02-28T11:38:53;2.65;;;1.65;;
14526;SDS011;7350;51.208;4.238;2023-02-28T11:41:25;3.47;;;1.40;;
14526;SDS011;7350;51.208;4.238;2023-02-28T11:44:05;3.58;;;1.38;;
14526;SDS011;7350;51.208;4.238;2023-02-28T11:46:46;3.17;;;1.42;;
14526;SDS011;7350;51.208;4.238;2023-02-28T11:49:20;3.67;;;1.30;;
14526;SDS011;7350;51.208;4.238;2023-02-28T11:51:59;2.72;;;1.15;;
14526;SDS011;7350;51.208;4.238;2023-02-28T11:54:33;2.50;;;1.30;;
14526;SDS011;7350;51.208;4.238;2023-02-28T11:57:20;3.92;;;1.38;;
14526;SDS011;7350;51.208;4.238;2023-02-28T12:00:00;3.33;;;1.48;;
14526;SDS011;7350;51.208;4.238;2023-02-28T12:02:35;3.50;;;1.40;;
14526;SDS011;7350;51.208;4.238;2023-02-28T12:05:15;1.45;;;1.00;;
14526;SDS011;7350;51.208;4.238;2023-02-28T12:07:59;2.72;;;1.20;;
14526;SDS011;7350;51.208;4.238;2023-02-28T12:10:35;1.70;;;1.40;;
14526;SDS011;7350;51.208;4.238;2023-02-28T12:13:12;2.72;;;0.95;;
14526;SDS011;7350;51.208;4.238;2023-02-28T12:19:05;1.60;;;1.10;;
14526;SDS011;7350;51.208;4.238;2023-02-28T12:21:46;1.17;;;0.90;;
14526;SDS011;7350;51.208;4.238;2023-02-28T12:24:28;2.38;;;1.10;;
14526;SDS011;7350;51.208;4.238;2023-02-28T12:27:06;2.03;;;0.95;;
14526;SDS011;7350;51.208;4.238;2023-02-28T12:29:38;2.80;;;1.00;;
14526;SDS011;7350;51.208;4.238;2023-02-28T12:32:12;3.55;;;1.48;;
14526;SDS011;7350;51.208;4.238;2023-02-28T12:34:44;2.53;;;1.05;;
14526;SDS011;7350;51.208;4.238;2023-02-28T12:37:15;2.90;;;1.13;;
14526;SDS011;7350;51.208;4.238;2023-02-28T12:39:50;2.15;;;1.00;;
14526;SDS011;7350;51.208;4.238;2023-02-28T12:42:24;1.55;;;0.90;;
14526;SDS011;7350;51.208;4.238;2023-02-28T12:44:56;1.73;;;1.20;;
14526;SDS011;7350;51.208;4.238;2023-02-28T12:47:27;1.40;;;1.00;;
14526;SDS011;7350;51.208;4.238;2023-02-28T12:49:55;1.25;;;1.00;;
14526;SDS011;7350;51.208;4.238;2023-02-28T12:52:28;1.85;;;0.90;;
14526;SDS011;7350;51.208;4.238;2023-02-28T12:55:03;1.40;;;0.90;;
14526;SDS011;7350;51.208;4.238;2023-02-28T12:57:35;2.08;;;0.90;;
14526;SDS011;7350;51.208;4.238;2023-02-28T13:00:09;1.33;;;0.82;;
14526;SDS011;7350;51.208;4.238;2023-02-28T13:11:41;3.60;;;1.02;;
14526;SDS011;7350;51.208;4.238;2023-02-28T13:14:20;1.33;;;1.13;;
14526;SDS011;7350;51.208;4.238;2023-02-28T13:16:53;1.50;;;0.95;;
14526;SDS011;7350;51.208;4.238;2023-02-28T13:19:23;1.75;;;1.00;;
14526;SDS011;7350;51.208;4.238;2023-02-28T13:21:53;2.10;;;1.08;;
14526;SDS011;7350;51.208;4.238;2023-02-28T13:24:42;2.10;;;1.10;;
14526;SDS011;7350;51.208;4.238;2023-02-28T13:27:23;1.40;;;1.20;;
14526;SDS011;7350;51.208;4.238;2023-02-28T13:31:03;2.65;;;1.05;;
14526;SDS011;7350;51.208;4.238;2023-02-28T13:33:27;1.35;;;1.00;;
14526;SDS011;7350;51.208;4.238;2023-02-28T13:36:06;1.00;;;0.85;;
14526;SDS011;7350;51.208;4.238;2023-02-28T13:38:49;2.95;;;0.90;;
14526;SDS011;7350;51.208;4.238;2023-02-28T13:44:15;1.63;;;1.05;;
14526;SDS011;7350;51.208;4.238;2023-02-28T13:49:50;1.38;;;0.90;;
14526;SDS011;7350;51.208;4.238;2023-02-28T13:52:18;2.92;;;1.00;;
14526;SDS011;7350;51.208;4.238;2023-02-28T13:54:51;4.05;;;0.90;;
14526;SDS011;7350;51.208;4.238;2023-02-28T13:57:41;1.83;;;1.05;;
14526;SDS011;7350;51.208;4.238;2023-02-28T14:00:27;2.38;;;1.02;;
14526;SDS011;7350;51.208;4.238;2023-02-28T14:03:10;2.83;;;1.15;;
14526;SDS011;7350;51.208;4.238;2023-02-28T14:06:16;1.90;;;0.90;;
14526;SDS011;7350;51.208;4.238;2023-02-28T14:08:50;1.88;;;0.90;;
14526;SDS011;7350;51.208;4.238;2023-02-28T14:11:25;1.90;;;1.13;;
14526;SDS011;7350;51.208;4.238;2023-02-28T14:13:58;3.63;;;1.02;;
14526;SDS011;7350;51.208;4.238;2023-02-28T14:16:27;1.73;;;1.23;;
14526;SDS011;7350;51.208;4.238;2023-02-28T14:19:03;2.40;;;1.00;;
14526;SDS011;7350;51.208;4.238;2023-02-28T14:21:39;1.20;;;1.00;;
14526;SDS011;7350;51.208;4.238;2023-02-28T14:24:25;1.58;;;0.90;;
14526;SDS011;7350;51.208;4.238;2023-02-28T14:27:26;1.67;;;1.17;;
14526;SDS011;7350;51.208;4.238;2023-02-28T14:30:15;1.23;;;0.90;;
14526;SDS011;7350;51.208;4.238;2023-02-28T14:33:16;1.65;;;1.20;;
14526;SDS011;7350;51.208;4.238;2023-02-28T14:36:10;2.83;;;1.13;;
14526;SDS011;7350;51.208;4.238;2023-02-28T14:38:43;1.52;;;1.10;;
14526;SDS011;7350;51.208;4.238;2023-02-28T14:41:18;1.17;;;1.00;;
14526;SDS011;7350;51.208;4.238;2023-02-28T14:43:52;2.08;;;1.05;;
14526;SDS011;7350;51.208;4.238;2023-02-28T14:46:21;1.45;;;1.25;;
14526;SDS011;7350;51.208;4.238;2023-02-28T14:48:51;1.58;;;1.00;;
14526;SDS011;7350;51.208;4.238;2023-02-28T14:51:19;1.17;;;1.00;;
14526;SDS011;7350;51.208;4.238;2023-02-28T14:53:48;2.22;;;1.17;;
14526;SDS011;7350;51.208;4.238;2023-02-28T14:56:24;1.00;;;0.90;;
14526;SDS011;7350;51.208;4.238;2023-02-28T14:58:56;3.70;;;1.30;;
14526;SDS011;7350;51.208;4.238;2023-02-28T15:01:24;1.92;;;1.40;;
14526;SDS011;7350;51.208;4.238;2023-02-28T15:04:03;1.85;;;1.10;;
14526;SDS011;7350;51.208;4.238;2023-02-28T15:06:32;2.38;;;1.48;;
14526;SDS011;7350;51.208;4.238;2023-02-28T15:09:09;1.40;;;1.20;;
14526;SDS011;7350;51.208;4.238;2023-02-28T15:11:40;2.25;;;1.30;;
14526;SDS011;7350;51.208;4.238;2023-02-28T15:14:13;1.92;;;1.48;;
14526;SDS011;7350;51.208;4.238;2023-02-28T15:16:44;2.92;;;1.63;;
14526;SDS011;7350;51.208;4.238;2023-02-28T15:19:17;3.63;;;1.60;;
14526;SDS011;7350;51.208;4.238;2023-02-28T15:21:50;3.92;;;1.45;;
14526;SDS011;7350;51.208;4.238;2023-02-28T15:24:20;4.20;;;1.50;;
14526;SDS011;7350;51.208;4.238;2023-02-28T15:26:51;3.08;;;1.50;;
14526;SDS011;7350;51.208;4.238;2023-02-28T15:29:22;2.38;;;1.40;;
14526;SDS011;7350;51.208;4.238;2023-02-28T15:31:55;2.47;;;1.33;;
14526;SDS011;7350;51.208;4.238;2023-02-28T15:34:26;3.85;;;1.60;;
14526;SDS011;7350;51.208;4.238;2023-02-28T15:36:59;5.40;;;1.75;;
14526;SDS011;7350;51.208;4.238;2023-02-28T15:39:27;7.30;;;1.60;;
14526;SDS011;7350;51.208;4.238;2023-02-28T15:42:09;5.53;;;1.50;;
14526;SDS011;7350;51.208;4.238;2023-02-28T15:44:36;3.30;;;1.48;;
14526;SDS011;7350;51.208;4.238;2023-02-28T15:47:04;2.88;;;1.50;;
14526;SDS011;7350;51.208;4.238;2023-02-28T15:49:37;4.13;;;1.75;;
14526;SDS011;7350;51.208;4.238;2023-02-28T15:52:09;6.07;;;1.60;;
14526;SDS011;7350;51.208;4.238;2023-02-28T15:54:40;4.28;;;1.60;;
14526;SDS011;7350;51.208;4.238;2023-02-28T15:57:12;2.33;;;1.45;;